Westville Center, New York
Current Conditions -  °F | °C
As of 12:53 PM on Thursday 23 Oct 2014 (Local Time) from KMSS Reporting Station
Overcast Overcast  
Wind Chill: 11°   Ceiling: 2700
Heat Index: 11°   Visibility: 10mi
Dew Point:   Wind: 15mph
Humidity: 66%   Direction: 40°NE
Pressure: 30.03"   Gusts: NA
Location:  44.9516°N, 74.3293°W
Report Text: KMSS 231653Z AUTO 04013KT 10SM BKN027 OVC036 11/04 A3003 RMK AO2 SLP173 T01060044
Loading
Personal Weather Stations






























Interactive Weather Map
Tropical Storm Tracking
New forecast layout! Learn more

10-Day Weather Forecast

Advertisements
Track Severe Weather on mobile